sensor_id;sensor_type;location;lat;lon;timestamp;pressure;altitude;pressure_sealevel;temperature;humidity
37200;BME280;23096;50.892;16.746;2023-04-10T00:00:02;100198.27;;;7.91;79.58
37200;BME280;23096;50.892;16.746;2023-04-10T00:02:30;100197.73;;;7.94;79.69
37200;BME280;23096;50.892;16.746;2023-04-10T00:04:55;100197.56;;;7.95;79.67
37200;BME280;23096;50.892;16.746;2023-04-10T00:07:21;100194.30;;;7.96;79.69
37200;BME280;23096;50.892;16.746;2023-04-10T00:09:46;100193.11;;;7.95;79.62
37200;BME280;23096;50.892;16.746;2023-04-10T00:12:12;100188.83;;;7.96;79.58
37200;BME280;23096;50.892;16.746;2023-04-10T00:14:38;100191.23;;;7.95;79.58
37200;BME280;23096;50.892;16.746;2023-04-10T00:17:04;100191.08;;;7.94;79.60
37200;BME280;23096;50.892;16.746;2023-04-10T00:19:30;100195.34;;;7.94;79.52
37200;BME280;23096;50.892;16.746;2023-04-10T00:21:55;100191.05;;;7.94;79.58
37200;BME280;23096;50.892;16.746;2023-04-10T00:24:21;100188.83;;;7.96;79.61
37200;BME280;23096;50.892;16.746;2023-04-10T00:26:47;100189.34;;;7.97;79.57
37200;BME280;23096;50.892;16.746;2023-04-10T00:29:12;100182.98;;;7.99;79.61
37200;BME280;23096;50.892;16.746;2023-04-10T00:31:38;100180.41;;;8.02;79.65
37200;BME280;23096;50.892;16.746;2023-04-10T00:34:03;100180.23;;;8.03;79.58
37200;BME280;23096;50.892;16.746;2023-04-10T00:36:29;100182.30;;;7.99;79.42
37200;BME280;23096;50.892;16.746;2023-04-10T00:38:56;100180.28;;;7.96;79.40
37200;BME280;23096;50.892;16.746;2023-04-10T00:41:21;100181.84;;;7.92;79.41
37200;BME280;23096;50.892;16.746;2023-04-10T00:43:48;100185.27;;;7.90;79.46
37200;BME280;23096;50.892;16.746;2023-04-10T00:46:14;100185.45;;;7.89;79.55
37200;BME280;23096;50.892;16.746;2023-04-10T00:48:40;100186.14;;;7.89;79.60
37200;BME280;23096;50.892;16.746;2023-04-10T00:51:06;100190.40;;;7.91;79.57
37200;BME280;23096;50.892;16.746;2023-04-10T00:53:32;100191.94;;;7.92;79.53
37200;BME280;23096;50.892;16.746;2023-04-10T00:55:58;100190.39;;;7.93;79.52
37200;BME280;23096;50.892;16.746;2023-04-10T00:58:24;100191.57;;;7.95;79.55
37200;BME280;23096;50.892;16.746;2023-04-10T01:00:51;100194.64;;;7.96;79.52
37200;BME280;23096;50.892;16.746;2023-04-10T01:03:18;100190.71;;;7.96;79.52
37200;BME280;23096;50.892;16.746;2023-04-10T01:08:41;100183.24;;;7.86;79.34
37200;BME280;23096;50.892;16.746;2023-04-10T01:11:26;100181.39;;;7.81;79.33
37200;BME280;23096;50.892;16.746;2023-04-10T01:14:04;100179.02;;;7.75;79.28
37200;BME280;23096;50.892;16.746;2023-04-10T01:16:40;100183.49;;;7.73;79.37
37200;BME280;23096;50.892;16.746;2023-04-10T01:21:59;100182.96;;;7.75;79.54
37200;BME280;23096;50.892;16.746;2023-04-10T01:29:59;100175.91;;;7.83;79.66
37200;BME280;23096;50.892;16.746;2023-04-10T01:32:28;100171.96;;;7.85;79.60
37200;BME280;23096;50.892;16.746;2023-04-10T01:34:56;100172.98;;;7.87;79.63
37200;BME280;23096;50.892;16.746;2023-04-10T01:37:30;100174.50;;;7.89;79.60
37200;BME280;23096;50.892;16.746;2023-04-10T01:40:03;100177.05;;;7.91;79.59
37200;BME280;23096;50.892;16.746;2023-04-10T01:42:41;100179.96;;;7.92;79.55
37200;BME280;23096;50.892;16.746;2023-04-10T01:45:13;100183.39;;;7.91;79.50
37200;BME280;23096;50.892;16.746;2023-04-10T01:47:43;100184.25;;;7.90;79.50
37200;BME280;23096;50.892;16.746;2023-04-10T01:50:09;100184.94;;;7.89;79.51
37200;BME280;23096;50.892;16.746;2023-04-10T01:52:36;100184.79;;;7.86;79.42
37200;BME280;23096;50.892;16.746;2023-04-10T01:55:13;100187.17;;;7.87;79.51
37200;BME280;23096;50.892;16.746;2023-04-10T01:57:44;100186.98;;;7.89;79.56
37200;BME280;23096;50.892;16.746;2023-04-10T02:00:14;100184.23;;;7.92;79.58
37200;BME280;23096;50.892;16.746;2023-04-10T02:02:41;100184.73;;;7.95;79.62
37200;BME280;23096;50.892;16.746;2023-04-10T02:05:08;100186.27;;;7.96;79.57
37200;BME280;23096;50.892;16.746;2023-04-10T02:07:54;100184.21;;;7.97;79.60
37200;BME280;23096;50.892;16.746;2023-04-10T02:10:28;100181.30;;;7.97;79.55
37200;BME280;23096;50.892;16.746;2023-04-10T02:13:05;100179.77;;;7.96;79.53
37200;BME280;23096;50.892;16.746;2023-04-10T02:15:32;100180.65;;;7.92;79.44
37200;BME280;23096;50.892;16.746;2023-04-10T02:18:00;100182.23;;;7.86;79.36
37200;BME280;23096;50.892;16.746;2023-04-10T02:20:29;100182.45;;;7.78;79.23
37200;BME280;23096;50.892;16.746;2023-04-10T02:22:58;100183.33;;;7.72;79.28
37200;BME280;23096;50.892;16.746;2023-04-10T02:25:36;100184.37;;;7.68;79.35
37200;BME280;23096;50.892;16.746;2023-04-10T02:28:06;100181.29;;;7.69;79.46
37200;BME280;23096;50.892;16.746;2023-04-10T02:30:32;100181.98;;;7.65;79.34
37200;BME280;23096;50.892;16.746;2023-04-10T02:32:58;100181.48;;;7.63;79.34
37200;BME280;23096;50.892;16.746;2023-04-10T02:35:26;100178.05;;;7.65;79.48
37200;BME280;23096;50.892;16.746;2023-04-10T02:37:54;100178.39;;;7.67;79.45
37200;BME280;23096;50.892;16.746;2023-04-10T02:40:20;100177.53;;;7.67;79.51
37200;BME280;23096;50.892;16.746;2023-04-10T02:42:56;100176.51;;;7.69;79.57
37200;BME280;23096;50.892;16.746;2023-04-10T02:45:23;100175.48;;;7.69;79.64
37200;BME280;23096;50.892;16.746;2023-04-10T02:47:49;100178.04;;;7.69;79.54
37200;BME280;23096;50.892;16.746;2023-04-10T02:50:15;100184.36;;;7.69;79.57
37200;BME280;23096;50.892;16.746;2023-04-10T02:52:43;100185.21;;;7.69;79.53
37200;BME280;23096;50.892;16.746;2023-04-10T02:55:09;100181.30;;;7.66;79.55
37200;BME280;23096;50.892;16.746;2023-04-10T02:57:35;100179.95;;;7.62;79.47
37200;BME280;23096;50.892;16.746;2023-04-10T03:00:02;100181.86;;;7.58;79.43
37200;BME280;23096;50.892;16.746;2023-04-10T03:02:41;100181.36;;;7.55;79.43
37200;BME280;23096;50.892;16.746;2023-04-10T03:05:12;100181.38;;;7.50;79.38
37200;BME280;23096;50.892;16.746;2023-04-10T03:07:37;100181.56;;;7.45;79.34
37200;BME280;23096;50.892;16.746;2023-04-10T03:10:05;100180.23;;;7.40;79.25
37200;BME280;23096;50.892;16.746;2023-04-10T03:12:31;100177.34;;;7.34;79.19
37200;BME280;23096;50.892;16.746;2023-04-10T03:14:56;100176.35;;;7.24;79.19
37200;BME280;23096;50.892;16.746;2023-04-10T03:17:22;100173.64;;;7.16;79.20
37200;BME280;23096;50.892;16.746;2023-04-10T03:19:47;100174.35;;;7.10;79.10
37200;BME280;23096;50.892;16.746;2023-04-10T03:22:13;100170.42;;;7.04;79.11
37200;BME280;23096;50.892;16.746;2023-04-10T03:24:38;100173.36;;;6.98;78.98
37200;BME280;23096;50.892;16.746;2023-04-10T03:27:05;100175.25;;;6.88;78.86
37200;BME280;23096;50.892;16.746;2023-04-10T03:29:32;100176.80;;;6.79;78.84
37200;BME280;23096;50.892;16.746;2023-04-10T03:31:58;100177.67;;;6.70;78.85
37200;BME280;23096;50.892;16.746;2023-04-10T03:34:24;100177.69;;;6.62;78.92
37200;BME280;23096;50.892;16.746;2023-04-10T03:36:50;100178.02;;;6.54;78.83
37200;BME280;23096;50.892;16.746;2023-04-10T03:39:16;100173.93;;;6.50;78.92
37200;BME280;23096;50.892;16.746;2023-04-10T03:41:41;100177.17;;;6.47;79.00
37200;BME280;23096;50.892;16.746;2023-04-10T03:44:08;100179.39;;;6.46;79.00
37200;BME280;23096;50.892;16.746;2023-04-10T03:46:34;100180.23;;;6.42;78.94
37200;BME280;23096;50.892;16.746;2023-04-10T03:48:59;100179.23;;;6.37;78.89
37200;BME280;23096;50.892;16.746;2023-04-10T03:51:26;100180.08;;;6.30;78.86
37200;BME280;23096;50.892;16.746;2023-04-10T03:53:52;100182.80;;;6.26;78.95
37200;BME280;23096;50.892;16.746;2023-04-10T03:56:18;100188.78;;;6.24;79.09
37200;BME280;23096;50.892;16.746;2023-04-10T03:58:44;100189.29;;;6.23;79.10
37200;BME280;23096;50.892;16.746;2023-04-10T04:01:10;100187.23;;;6.18;79.01
37200;BME280;23096;50.892;16.746;2023-04-10T04:03:50;100188.94;;;6.16;79.00
37200;BME280;23096;50.892;16.746;2023-04-10T04:06:39;100191.15;;;6.15;79.13
37200;BME280;23096;50.892;16.746;2023-04-10T04:09:28;100194.40;;;6.16;79.15
37200;BME280;23096;50.892;16.746;2023-04-10T04:12:12;100196.45;;;6.12;79.19
37200;BME280;23096;50.892;16.746;2023-04-10T04:14:57;100197.13;;;6.12;79.24
37200;BME280;23096;50.892;16.746;2023-04-10T04:17:41;100195.25;;;6.13;79.23
37200;BME280;23096;50.892;16.746;2023-04-10T04:20:07;100197.63;;;6.12;79.23
37200;BME280;23096;50.892;16.746;2023-04-10T04:22:42;100202.24;;;6.09;79.04
37200;BME280;23096;50.892;16.746;2023-04-10T04:25:17;100207.00;;;6.06;79.19
37200;BME280;23096;50.892;16.746;2023-04-10T04:27:58;100213.84;;;6.07;79.23
37200;BME280;23096;50.892;16.746;2023-04-10T04:30:53;100214.86;;;6.06;79.18
37200;BME280;23096;50.892;16.746;2023-04-10T04:33:32;100217.25;;;6.06;79.26
37200;BME280;23096;50.892;16.746;2023-04-10T04:36:07;100217.94;;;6.08;79.45
37200;BME280;23096;50.892;16.746;2023-04-10T04:38:53;100223.40;;;6.12;79.34
37200;BME280;23096;50.892;16.746;2023-04-10T04:41:32;100220.33;;;6.16;79.43
37200;BME280;23096;50.892;16.746;2023-04-10T04:44:17;100219.14;;;6.21;79.46
37200;BME280;23096;50.892;16.746;2023-04-10T04:46:43;100216.76;;;6.26;79.52
37200;BME280;23096;50.892;16.746;2023-04-10T04:49:29;100217.80;;;6.29;79.56
37200;BME280;23096;50.892;16.746;2023-04-10T04:52:13;100220.02;;;6.33;79.66
37200;BME280;23096;50.892;16.746;2023-04-10T04:55:00;100221.73;;;6.37;79.65
37200;BME280;23096;50.892;16.746;2023-04-10T04:57:44;100219.34;;;6.42;79.72
37200;BME280;23096;50.892;16.746;2023-04-10T05:00:21;100218.32;;;6.45;79.64
37200;BME280;23096;50.892;16.746;2023-04-10T05:02:58;100219.16;;;6.47;79.69
37200;BME280;23096;50.892;16.746;2023-04-10T05:05:26;100219.00;;;6.50;79.69
37200;BME280;23096;50.892;16.746;2023-04-10T05:08:12;100220.36;;;6.55;79.75
37200;BME280;23096;50.892;16.746;2023-04-10T05:10:56;100216.44;;;6.59;79.71
37200;BME280;23096;50.892;16.746;2023-04-10T05:13:42;100222.74;;;6.63;79.77
37200;BME280;23096;50.892;16.746;2023-04-10T05:16:15;100223.60;;;6.67;79.76
37200;BME280;23096;50.892;16.746;2023-04-10T05:19:13;100230.43;;;6.75;79.93
37200;BME280;23096;50.892;16.746;2023-04-10T05:21:59;100228.73;;;6.84;79.97
37200;BME280;23096;50.892;16.746;2023-04-10T05:24:43;100230.08;;;6.91;79.99
37200;BME280;23096;50.892;16.746;2023-04-10T05:27:21;100232.80;;;6.96;79.94
37200;BME280;23096;50.892;16.746;2023-04-10T05:30:05;100237.92;;;7.02;79.96
37200;BME280;23096;50.892;16.746;2023-04-10T05:32:51;100237.91;;;7.09;79.97
37200;BME280;23096;50.892;16.746;2023-04-10T05:35:37;100238.58;;;7.17;80.07
37200;BME280;23096;50.892;16.746;2023-04-10T05:38:21;100245.73;;;7.26;80.17
37200;BME280;23096;50.892;16.746;2023-04-10T05:41:06;100246.05;;;7.33;80.15
37200;BME280;23096;50.892;16.746;2023-04-10T05:43:37;100244.83;;;7.40;80.16
37200;BME280;23096;50.892;16.746;2023-04-10T05:46:23;100242.41;;;7.50;80.28
37200;BME280;23096;50.892;16.746;2023-04-10T05:48:58;100240.32;;;7.61;80.36
37200;BME280;23096;50.892;16.746;2023-04-10T05:51:42;100237.38;;;7.73;80.46
37200;BME280;23096;50.892;16.746;2023-04-10T05:54:34;100240.23;;;7.82;80.40
37200;BME280;23096;50.892;16.746;2023-04-10T05:57:08;100248.77;;;7.85;80.33
37200;BME280;23096;50.892;16.746;2023-04-10T05:59:34;100256.11;;;7.88;80.34
37200;BME280;23096;50.892;16.746;2023-04-10T06:02:18;100263.11;;;7.91;80.38
37200;BME280;23096;50.892;16.746;2023-04-10T06:04:44;100265.66;;;7.93;80.32
37200;BME280;23096;50.892;16.746;2023-04-10T06:07:11;100267.55;;;7.94;80.31
37200;BME280;23096;50.892;16.746;2023-04-10T06:09:37;100265.98;;;7.97;80.28
37200;BME280;23096;50.892;16.746;2023-04-10T06:12:05;100267.02;;;7.99;80.33
37200;BME280;23096;50.892;16.746;2023-04-10T06:14:30;100264.77;;;8.01;80.19
37200;BME280;23096;50.892;16.746;2023-04-10T06:16:56;100265.83;;;7.96;80.03
37200;BME280;23096;50.892;16.746;2023-04-10T06:19:22;100270.61;;;7.96;80.12
37200;BME280;23096;50.892;16.746;2023-04-10T06:21:47;100269.40;;;7.99;80.17
37200;BME280;23096;50.892;16.746;2023-04-10T06:24:13;100264.27;;;8.00;80.06
37200;BME280;23096;50.892;16.746;2023-04-10T06:26:40;100263.58;;;8.02;80.07
37200;BME280;23096;50.892;16.746;2023-04-10T06:29:05;100267.33;;;8.02;79.99
37200;BME280;23096;50.892;16.746;2023-04-10T06:31:32;100263.39;;;8.02;79.91
37200;BME280;23096;50.892;16.746;2023-04-10T06:33:58;100263.59;;;7.99;79.75
37200;BME280;23096;50.892;16.746;2023-04-10T06:36:25;100268.91;;;7.95;79.72
37200;BME280;23096;50.892;16.746;2023-04-10T06:38:57;100271.85;;;7.90;79.64
37200;BME280;23096;50.892;16.746;2023-04-10T06:41:23;100271.69;;;7.86;79.72
37200;BME280;23096;50.892;16.746;2023-04-10T06:43:52;100270.83;;;7.87;79.79
37200;BME280;23096;50.892;16.746;2023-04-10T06:46:18;100270.83;;;7.86;79.74
37200;BME280;23096;50.892;16.746;2023-04-10T06:48:44;100270.16;;;7.85;79.79
37200;BME280;23096;50.892;16.746;2023-04-10T06:51:09;100269.14;;;7.87;79.84
37200;BME280;23096;50.892;16.746;2023-04-10T06:53:35;100273.23;;;7.89;79.82
37200;BME280;23096;50.892;16.746;2023-04-10T06:56:01;100274.77;;;7.87;79.79
37200;BME280;23096;50.892;16.746;2023-04-10T06:58:26;100274.08;;;7.86;79.73
37200;BME280;23096;50.892;16.746;2023-04-10T07:00:52;100271.67;;;7.88;79.91
37200;BME280;23096;50.892;16.746;2023-04-10T07:03:18;100273.73;;;7.90;79.95
37200;BME280;23096;50.892;16.746;2023-04-10T07:05:44;100274.90;;;7.94;80.11
37200;BME280;23096;50.892;16.746;2023-04-10T07:08:09;100272.83;;;7.99;80.20
37200;BME280;23096;50.892;16.746;2023-04-10T07:10:35;100272.46;;;8.03;80.20
37200;BME280;23096;50.892;16.746;2023-04-10T07:13:00;100268.70;;;8.04;80.15
37200;BME280;23096;50.892;16.746;2023-04-10T07:15:26;100271.07;;;8.08;80.27
37200;BME280;23096;50.892;16.746;2023-04-10T07:17:51;100267.11;;;8.13;80.35
37200;BME280;23096;50.892;16.746;2023-04-10T07:20:17;100267.92;;;8.18;80.34
37200;BME280;23096;50.892;16.746;2023-04-10T07:22:43;100263.63;;;8.22;80.38
37200;BME280;23096;50.892;16.746;2023-04-10T07:25:08;100267.67;;;8.31;80.47
37200;BME280;23096;50.892;16.746;2023-04-10T07:27:34;100266.96;;;8.37;80.44
37200;BME280;23096;50.892;16.746;2023-04-10T07:30:00;100260.24;;;8.45;80.38
37200;BME280;23096;50.892;16.746;2023-04-10T07:32:25;100261.73;;;8.54;80.30
37200;BME280;23096;50.892;16.746;2023-04-10T07:34:51;100257.05;;;8.62;80.28
37200;BME280;23096;50.892;16.746;2023-04-10T07:37:16;100254.12;;;8.66;80.16
37200;BME280;23096;50.892;16.746;2023-04-10T07:39:43;100255.78;;;8.71;80.16
37200;BME280;23096;50.892;16.746;2023-04-10T07:42:09;100252.14;;;8.76;80.11
37200;BME280;23096;50.892;16.746;2023-04-10T07:44:35;100254.99;;;8.83;80.05
37200;BME280;23096;50.892;16.746;2023-04-10T07:47:02;100260.83;;;8.82;79.82
37200;BME280;23096;50.892;16.746;2023-04-10T07:49:27;100267.55;;;8.77;79.61
37200;BME280;23096;50.892;16.746;2023-04-10T07:51:53;100266.86;;;8.77;79.65
37200;BME280;23096;50.892;16.746;2023-04-10T07:54:18;100265.64;;;8.80;79.66
37200;BME280;23096;50.892;16.746;2023-04-10T07:56:44;100266.79;;;8.86;79.64
37200;BME280;23096;50.892;16.746;2023-04-10T07:59:10;100267.45;;;8.89;79.51
37200;BME280;23096;50.892;16.746;2023-04-10T08:01:36;100270.69;;;8.93;79.54
37200;BME280;23096;50.892;16.746;2023-04-10T08:04:01;100267.58;;;8.94;79.48
37200;BME280;23096;50.892;16.746;2023-04-10T08:06:27;100260.17;;;8.99;79.41
37200;BME280;23096;50.892;16.746;2023-04-10T08:08:52;100266.29;;;9.05;79.32
37200;BME280;23096;50.892;16.746;2023-04-10T08:13:51;100265.17;;;9.12;79.20
37200;BME280;23096;50.892;16.746;2023-04-10T08:16:21;100267.36;;;9.16;79.15
37200;BME280;23096;50.892;16.746;2023-04-10T08:18:47;100265.44;;;9.21;79.06
37200;BME280;23096;50.892;16.746;2023-04-10T08:21:12;100262.84;;;9.24;78.95
37200;BME280;23096;50.892;16.746;2023-04-10T08:23:38;100265.22;;;9.26;78.98
37200;BME280;23096;50.892;16.746;2023-04-10T08:26:04;100267.41;;;9.30;78.94
37200;BME280;23096;50.892;16.746;2023-04-10T08:28:29;100265.00;;;9.31;78.68
37200;BME280;23096;50.892;16.746;2023-04-10T08:30:56;100261.30;;;9.22;78.53
37200;BME280;23096;50.892;16.746;2023-04-10T08:33:22;100259.95;;;9.21;78.50
37200;BME280;23096;50.892;16.746;2023-04-10T08:35:47;100261.44;;;9.27;78.47
37200;BME280;23096;50.892;16.746;2023-04-10T08:38:13;100256.44;;;9.30;78.46
37200;BME280;23096;50.892;16.746;2023-04-10T08:40:39;100255.52;;;9.35;78.41
37200;BME280;23096;50.892;16.746;2023-04-10T08:43:04;100258.16;;;9.44;78.46
37200;BME280;23096;50.892;16.746;2023-04-10T08:45:30;100256.34;;;9.54;78.44
37200;BME280;23096;50.892;16.746;2023-04-10T08:47:57;100255.42;;;9.59;78.34
37200;BME280;23096;50.892;16.746;2023-04-10T08:50:25;100253.38;;;9.58;78.12
37200;BME280;23096;50.892;16.746;2023-04-10T08:52:52;100254.11;;;9.55;78.01
37200;BME280;23096;50.892;16.746;2023-04-10T08:55:20;100249.98;;;9.54;77.91
37200;BME280;23096;50.892;16.746;2023-04-10T08:57:46;100249.73;;;9.61;77.97
37200;BME280;23096;50.892;16.746;2023-04-10T09:00:12;100244.86;;;9.67;77.80
37200;BME280;23096;50.892;16.746;2023-04-10T09:02:38;100248.23;;;9.71;77.75
37200;BME280;23096;50.892;16.746;2023-04-10T09:05:09;100249.73;;;9.77;77.69
37200;BME280;23096;50.892;16.746;2023-04-10T09:07:35;100249.29;;;9.84;77.70
37200;BME280;23096;50.892;16.746;2023-04-10T09:10:01;100248.11;;;9.95;77.69
37200;BME280;23096;50.892;16.746;2023-04-10T09:12:26;100246.52;;;10.10;77.81
37200;BME280;23096;50.892;16.746;2023-04-10T09:14:52;100242.88;;;10.26;77.83
37200;BME280;23096;50.892;16.746;2023-04-10T09:17:22;100235.15;;;10.39;77.65
37200;BME280;23096;50.892;16.746;2023-04-10T09:19:49;100236.98;;;10.53;77.62
37200;BME280;23096;50.892;16.746;2023-04-10T09:22:17;100236.36;;;10.60;77.43
37200;BME280;23096;50.892;16.746;2023-04-10T09:24:45;100236.39;;;10.69;77.42
37200;BME280;23096;50.892;16.746;2023-04-10T09:27:27;100232.92;;;10.70;77.09
37200;BME280;23096;50.892;16.746;2023-04-10T09:29:55;100229.77;;;10.74;77.13
37200;BME280;23096;50.892;16.746;2023-04-10T09:32:39;100230.58;;;10.87;77.09
37200;BME280;23096;50.892;16.746;2023-04-10T09:35:06;100233.42;;;10.92;76.69
37200;BME280;23096;50.892;16.746;2023-04-10T09:37:35;100229.03;;;10.87;76.56
37200;BME280;23096;50.892;16.746;2023-04-10T09:40:02;100227.08;;;10.91;76.52
37200;BME280;23096;50.892;16.746;2023-04-10T09:42:35;100222.61;;;11.00;76.53
37200;BME280;23096;50.892;16.746;2023-04-10T09:45:04;100221.91;;;11.11;76.38
37200;BME280;23096;50.892;16.746;2023-04-10T09:47:31;100220.50;;;11.12;76.12
37200;BME280;23096;50.892;16.746;2023-04-10T09:49:59;100218.33;;;11.09;76.01
37200;BME280;23096;50.892;16.746;2023-04-10T09:52:27;100213.54;;;11.07;76.01
37200;BME280;23096;50.892;16.746;2023-04-10T09:54:54;100210.48;;;11.06;75.78
37200;BME280;23096;50.892;16.746;2023-04-10T09:57:20;100207.41;;;11.04;75.71
37200;BME280;23096;50.892;16.746;2023-04-10T09:59:53;100206.09;;;11.02;75.59
37200;BME280;23096;50.892;16.746;2023-04-10T10:02:22;100200.39;;;11.03;75.67
37200;BME280;23096;50.892;16.746;2023-04-10T10:04:48;100198.63;;;11.06;75.54
37200;BME280;23096;50.892;16.746;2023-04-10T10:07:16;100192.15;;;11.11;75.56
37200;BME280;23096;50.892;16.746;2023-04-10T10:09:43;100189.21;;;11.21;75.75
37200;BME280;23096;50.892;16.746;2023-04-10T10:12:11;100187.71;;;11.36;75.76
37200;BME280;23096;50.892;16.746;2023-04-10T10:14:59;100186.55;;;11.51;75.79
37200;BME280;23096;50.892;16.746;2023-04-10T10:17:33;100188.65;;;11.66;75.75
37200;BME280;23096;50.892;16.746;2023-04-10T10:20:01;100186.79;;;11.72;75.34
37200;BME280;23096;50.892;16.746;2023-04-10T10:22:28;100189.26;;;11.69;75.04
37200;BME280;23096;50.892;16.746;2023-04-10T10:24:55;100185.91;;;11.65;74.95
37200;BME280;23096;50.892;16.746;2023-04-10T10:27:22;100184.88;;;11.65;74.93
37200;BME280;23096;50.892;16.746;2023-04-10T10:29:49;100185.02;;;11.66;74.92
37200;BME280;23096;50.892;16.746;2023-04-10T10:32:17;100177.14;;;11.65;74.75
37200;BME280;23096;50.892;16.746;2023-04-10T10:34:45;100171.52;;;11.61;74.72
37200;BME280;23096;50.892;16.746;2023-04-10T10:37:11;100167.63;;;11.59;74.62
37200;BME280;23096;50.892;16.746;2023-04-10T10:39:52;100167.00;;;11.64;74.68
37200;BME280;23096;50.892;16.746;2023-04-10T10:45:20;100160.43;;;11.81;74.65
37200;BME280;23096;50.892;16.746;2023-04-10T10:47:52;100154.49;;;11.93;74.62
37200;BME280;23096;50.892;16.746;2023-04-10T10:50:19;100156.14;;;12.12;74.71
37200;BME280;23096;50.892;16.746;2023-04-10T10:57:55;100147.20;;;12.39;74.46
37200;BME280;23096;50.892;16.746;2023-04-10T11:00:26;100143.67;;;12.43;74.16
37200;BME280;23096;50.892;16.746;2023-04-10T11:08:13;100144.71;;;12.63;73.92
37200;BME280;23096;50.892;16.746;2023-04-10T11:10:58;100138.16;;;12.70;73.80
37200;BME280;23096;50.892;16.746;2023-04-10T11:13:23;100133.49;;;12.77;73.70
37200;BME280;23096;50.892;16.746;2023-04-10T11:15:50;100129.02;;;12.83;73.80
37200;BME280;23096;50.892;16.746;2023-04-10T11:18:16;100126.84;;;12.93;73.73
37200;BME280;23096;50.892;16.746;2023-04-10T11:21:07;100126.42;;;12.96;73.40
37200;BME280;23096;50.892;16.746;2023-04-10T11:23:34;100124.45;;;12.98;73.34
37200;BME280;23096;50.892;16.746;2023-04-10T11:26:00;100121.27;;;13.01;73.29
37200;BME280;23096;50.892;16.746;2023-04-10T11:31:20;100114.13;;;13.16;73.07
37200;BME280;23096;50.892;16.746;2023-04-10T11:33:59;100109.63;;;13.29;73.07
37200;BME280;23096;50.892;16.746;2023-04-10T11:36:26;100108.16;;;13.44;72.94
37200;BME280;23096;50.892;16.746;2023-04-10T11:38:55;100104.39;;;13.49;72.69
37200;BME280;23096;50.892;16.746;2023-04-10T11:41:25;100098.15;;;13.50;72.72
37200;BME280;23096;50.892;16.746;2023-04-10T11:43:52;100095.72;;;13.56;72.54
37200;BME280;23096;50.892;16.746;2023-04-10T11:46:19;100095.90;;;13.61;72.44
37200;BME280;23096;50.892;16.746;2023-04-10T11:48:44;100083.99;;;13.61;72.12
37200;BME280;23096;50.892;16.746;2023-04-10T11:51:12;100082.56;;;13.57;71.92
37200;BME280;23096;50.892;16.746;2023-04-10T11:53:41;100080.34;;;13.63;71.89
37200;BME280;23096;50.892;16.746;2023-04-10T11:56:19;100082.11;;;13.67;71.78
37200;BME280;23096;50.892;16.746;2023-04-10T11:58:49;100080.09;;;13.76;71.80
37200;BME280;23096;50.892;16.746;2023-04-10T12:01:20;100077.84;;;13.87;71.72
37200;BME280;23096;50.892;16.746;2023-04-10T12:03:46;100078.89;;;13.87;71.40
37200;BME280;23096;50.892;16.746;2023-04-10T12:06:12;100074.14;;;13.89;71.32
37200;BME280;23096;50.892;16.746;2023-04-10T12:08:43;100077.02;;;13.96;71.51
37200;BME280;23096;50.892;16.746;2023-04-10T12:11:19;100073.52;;;14.08;71.42
37200;BME280;23096;50.892;16.746;2023-04-10T12:13:46;100074.20;;;14.18;71.42
37200;BME280;23096;50.892;16.746;2023-04-10T12:16:12;100068.93;;;14.26;71.11
37200;BME280;23096;50.892;16.746;2023-04-10T12:18:38;100066.94;;;14.29;71.02
37200;BME280;23096;50.892;16.746;2023-04-10T12:21:05;100063.95;;;14.36;70.84
37200;BME280;23096;50.892;16.746;2023-04-10T12:23:31;100061.45;;;14.48;70.88
37200;BME280;23096;50.892;16.746;2023-04-10T12:26:11;100058.92;;;14.62;70.90
37200;BME280;23096;50.892;16.746;2023-04-10T12:28:38;100053.50;;;14.73;70.80
37200;BME280;23096;50.892;16.746;2023-04-10T12:31:04;100051.48;;;14.81;70.76
37200;BME280;23096;50.892;16.746;2023-04-10T12:33:30;100049.89;;;14.87;70.50
37200;BME280;23096;50.892;16.746;2023-04-10T12:35:56;100050.31;;;14.89;70.30
37200;BME280;23096;50.892;16.746;2023-04-10T12:38:41;100046.78;;;14.87;70.20
37200;BME280;23096;50.892;16.746;2023-04-10T12:41:11;100048.36;;;14.86;69.91
37200;BME280;23096;50.892;16.746;2023-04-10T12:43:41;100043.22;;;14.89;69.88
37200;BME280;23096;50.892;16.746;2023-04-10T12:46:09;100043.97;;;14.88;69.76
37200;BME280;23096;50.892;16.746;2023-04-10T12:48:35;100039.79;;;14.89;69.90
37200;BME280;23096;50.892;16.746;2023-04-10T12:51:01;100038.93;;;14.93;69.67
37200;BME280;23096;50.892;16.746;2023-04-10T12:53:28;100035.30;;;14.98;69.62
37200;BME280;23096;50.892;16.746;2023-04-10T12:56:04;100034.97;;;15.07;69.37
37200;BME280;23096;50.892;16.746;2023-04-10T12:58:31;100026.36;;;15.10;69.48
37200;BME280;23096;50.892;16.746;2023-04-10T13:01:01;100022.80;;;15.13;69.28
37200;BME280;23096;50.892;16.746;2023-04-10T13:03:27;100021.80;;;15.16;68.89
37200;BME280;23096;50.892;16.746;2023-04-10T13:05:53;100014.71;;;15.12;68.81
37200;BME280;23096;50.892;16.746;2023-04-10T13:08:19;100011.51;;;15.09;68.63
37200;BME280;23096;50.892;16.746;2023-04-10T13:10:45;100009.09;;;15.09;68.56
37200;BME280;23096;50.892;16.746;2023-04-10T13:13:11;100008.40;;;15.14;68.70
37200;BME280;23096;50.892;16.746;2023-04-10T13:15:38;100003.45;;;15.21;68.47
37200;BME280;23096;50.892;16.746;2023-04-10T13:18:03;99998.08;;;15.30;68.65
37200;BME280;23096;50.892;16.746;2023-04-10T13:20:33;99996.69;;;15.35;68.26
37200;BME280;23096;50.892;16.746;2023-04-10T13:22:59;99992.34;;;15.31;68.05
37200;BME280;23096;50.892;16.746;2023-04-10T13:25:24;99987.66;;;15.35;68.17
37200;BME280;23096;50.892;16.746;2023-04-10T13:27:51;99984.35;;;15.36;68.00
37200;BME280;23096;50.892;16.746;2023-04-10T13:30:17;99975.58;;;15.34;68.03